Time;durP1;ratioP1;P1;durP2;ratioP2;P2;SDS_P1;SDS_P2;PMS_P1;PMS_P2;Temp;Humidity;BMP_temperature;BMP_pressure;BME280_temperature;BME280_humidity;BME280_pressure;Samples;Min_cycle;Max_cycle;Signal;HPM_P1;HPM_P2
2022/09/13 00:00:54;;;;;;;2.25;2.05;;;15.90;93.10;;;;;;5035331;28;20028;-70
2022/09/13 00:03:20;;;;;;;2.55;2.30;;;16.00;93.20;;;;;;5041645;28;20025;-70
2022/09/13 00:05:47;;;;;;;4.45;2.47;;;16.00;93.10;;;;;;5038266;28;20424;-69
2022/09/13 00:08:13;;;;;;;2.15;1.98;;;16.00;93.00;;;;;;5036728;28;20061;-70
2022/09/13 00:10:42;;;;;;;4.35;2.60;;;16.00;93.00;;;;;;5037574;28;20029;-70
2022/09/13 00:13:10;;;;;;;3.10;2.13;;;16.00;93.00;;;;;;5043923;28;20044;-70
2022/09/13 00:15:41;;;;;;;2.92;2.15;;;16.00;92.90;;;;;;5044284;28;20039;-71
2022/09/13 00:18:07;;;;;;;2.55;2.33;;;16.00;93.00;;;;;;5040799;28;20370;-70
2022/09/13 00:20:32;;;;;;;3.53;2.33;;;16.00;92.80;;;;;;5039495;28;20027;-70
2022/09/13 00:22:58;;;;;;;2.58;2.38;;;16.00;92.80;;;;;;5037384;28;20055;-70
2022/09/13 00:25:24;;;;;;;3.38;2.45;;;16.00;92.70;;;;;;5038792;28;20116;-68
2022/09/13 00:27:50;;;;;;;5.25;2.60;;;16.00;92.60;;;;;;5036166;28;20032;-71
2022/09/13 00:30:15;;;;;;;3.72;2.70;;;16.00;92.60;;;;;;5040324;28;20106;-70
2022/09/13 00:32:41;;;;;;;2.25;2.05;;;16.00;92.60;;;;;;5044676;28;20430;-70
2022/09/13 00:35:07;;;;;;;3.28;2.80;;;16.00;92.60;;;;;;5041836;28;20425;-71
2022/09/13 00:37:33;;;;;;;3.03;2.78;;;16.00;92.60;;;;;;5042935;28;20393;-69
2022/09/13 00:39:59;;;;;;;4.53;2.70;;;16.10;92.50;;;;;;5039145;28;20037;-69
2022/09/13 00:42:27;;;;;;;2.75;2.40;;;16.10;92.40;;;;;;5037095;28;20037;-69
2022/09/13 00:45:04;;;;;;;4.70;2.90;;;16.10;92.30;;;;;;5036703;28;20116;-69
2022/09/13 00:47:41;;;;;;;3.45;2.47;;;16.10;92.30;;;;;;5037735;28;20032;-69
2022/09/13 00:50:18;;;;;;;2.67;2.47;;;16.00;92.40;;;;;;5042237;28;20299;-69
2022/09/13 00:52:46;;;;;;;2.58;2.35;;;16.10;92.30;;;;;;5043788;28;20064;-71
2022/09/13 00:55:25;;;;;;;2.97;2.42;;;16.00;92.40;;;;;;5040679;28;20053;-69
2022/09/13 00:57:54;;;;;;;3.60;2.80;;;16.10;92.30;;;;;;5042525;28;20173;-69
2022/09/13 01:00:20;;;;;;;3.40;2.50;;;16.10;92.30;;;;;;5039356;28;20111;-69
2022/09/13 01:02:55;;;;;;;3.65;2.20;;;16.10;92.20;;;;;;5040658;28;20060;-69
2022/09/13 01:05:26;;;;;;;2.15;1.95;;;16.10;92.10;;;;;;5037133;28;20091;-70
2022/09/13 01:07:54;;;;;;;2.38;2.17;;;16.10;92.30;;;;;;5037250;28;20037;-70
2022/09/13 01:10:22;;;;;;;2.38;2.17;;;16.10;92.20;;;;;;5043412;28;20088;-69
2022/09/13 01:12:52;;;;;;;4.50;2.55;;;16.10;92.20;;;;;;5042575;28;20040;-70
2022/09/13 01:15:18;;;;;;;3.97;2.72;;;16.10;92.20;;;;;;5055107;28;20037;-69
2022/09/13 01:17:44;;;;;;;2.67;2.45;;;16.10;92.20;;;;;;5040402;28;20043;-70
2022/09/13 01:20:11;;;;;;;3.25;2.63;;;16.00;92.30;;;;;;5037217;28;20088;-69
2022/09/13 01:22:49;;;;;;;3.00;2.15;;;16.00;92.20;;;;;;5038345;28;20025;-69
2022/09/13 01:25:37;;;;;;;2.90;2.50;;;16.00;92.40;;;;;;5035029;28;20044;-69
2022/09/13 01:28:30;;;;;;;2.95;2.25;;;16.00;92.50;;;;;;5041048;28;20061;-70
2022/09/13 01:31:11;;;;;;;3.67;2.55;;;15.90;92.50;;;;;;5033201;28;20567;-68
2022/09/13 01:33:42;;;;;;;3.60;2.42;;;15.90;92.50;;;;;;5039956;28;20028;-69
2022/09/13 01:36:20;;;;;;;4.20;2.33;;;15.80;92.50;;;;;;5037817;28;20501;-69
2022/09/13 01:38:58;;;;;;;3.25;2.55;;;15.70;92.50;;;;;;5038340;28;20504;-68
2022/09/13 01:41:36;;;;;;;2.50;2.28;;;15.70;92.50;;;;;;5037894;28;20071;-69
2022/09/13 01:44:23;;;;;;;2.85;2.55;;;15.60;92.70;;;;;;5033259;28;20080;-69
2022/09/13 01:46:53;;;;;;;3.17;2.20;;;15.60;92.90;;;;;;5042463;28;20040;-68
2022/09/13 01:49:21;;;;;;;3.35;2.45;;;15.60;92.90;;;;;;5042248;28;20159;-68
2022/09/13 01:51:55;;;;;;;3.65;2.70;;;15.60;93.10;;;;;;5039209;28;20025;-69
2022/09/13 01:54:46;;;;;;;2.92;2.63;;;15.50;93.20;;;;;;5051102;28;20452;-68
2022/09/13 01:57:30;;;;;;;2.90;2.45;;;15.50;93.10;;;;;;5036934;28;20048;-68
2022/09/13 02:00:09;;;;;;;3.90;2.70;;;15.50;93.10;;;;;;5032425;28;20033;-69
2022/09/13 02:03:06;;;;;;;4.65;2.58;;;15.40;93.10;;;;;;5037769;28;20041;-69
2022/09/13 02:05:43;;;;;;;3.63;3.25;;;15.40;93.50;;;;;;5037907;28;20547;-69
2022/09/13 02:08:16;;;;;;;3.80;3.25;;;15.40;93.60;;;;;;5036127;28;20029;-68
2022/09/13 02:10:48;;;;;;;2.90;2.67;;;15.50;93.50;;;;;;5040672;28;20106;-68
2022/09/13 02:13:19;;;;;;;4.28;2.33;;;15.50;93.40;;;;;;5038163;28;20037;-68
2022/09/13 02:15:47;;;;;;;3.63;2.72;;;15.50;93.40;;;;;;5040919;28;20031;-69
2022/09/13 02:18:28;;;;;;;2.63;2.08;;;15.50;93.20;;;;;;5036124;28;20059;-68
2022/09/13 02:21:00;;;;;;;2.60;2.40;;;15.50;93.30;;;;;;5034006;28;20461;-69
2022/09/13 02:23:33;;;;;;;2.78;2.53;;;15.50;93.30;;;;;;5039152;28;20039;-69
2022/09/13 02:26:02;;;;;;;2.92;2.55;;;15.50;93.30;;;;;;5038552;28;20039;-68
2022/09/13 02:28:35;;;;;;;2.97;2.72;;;15.40;93.20;;;;;;5038522;28;20493;-68
2022/09/13 02:31:03;;;;;;;2.92;2.33;;;15.40;93.10;;;;;;5038107;28;20144;-68
2022/09/13 02:33:34;;;;;;;3.45;2.85;;;15.40;93.10;;;;;;5038539;28;20035;-68
2022/09/13 02:36:15;;;;;;;3.00;2.70;;;15.40;93.20;;;;;;5034001;28;20493;-68
2022/09/13 02:39:09;;;;;;;3.08;2.80;;;15.30;93.20;;;;;;5036024;28;20682;-68
2022/09/13 02:41:43;;;;;;;2.75;2.25;;;15.30;93.40;;;;;;5035977;28;20068;-69
2022/09/13 02:44:16;;;;;;;3.30;2.30;;;15.20;93.50;;;;;;5041273;28;20037;-68
2022/09/13 02:47:05;;;;;;;3.28;2.97;;;15.20;93.60;;;;;;5040528;28;20063;-68
2022/09/13 02:50:03;;;;;;;3.90;2.55;;;15.20;93.90;;;;;;5033555;28;20729;-69
2022/09/13 02:53:08;;;;;;;2.97;2.40;;;15.20;94.00;;;;;;5036249;28;20044;-69
2022/09/13 02:55:43;;;;;;;2.80;2.60;;;15.20;94.00;;;;;;5035315;28;20029;-68
2022/09/13 02:58:20;;;;;;;3.45;2.90;;;15.10;94.10;;;;;;5033520;28;20037;-68
2022/09/13 03:00:46;;;;;;;3.35;2.92;;;15.10;94.20;;;;;;5034516;28;20102;-69
2022/09/13 03:03:15;;;;;;;3.95;3.03;;;15.10;94.10;;;;;;5041551;28;20020;-68
2022/09/13 03:05:41;;;;;;;3.40;3.10;;;15.10;94.20;;;;;;5040256;28;20506;-69
2022/09/13 03:08:10;;;;;;;3.25;2.95;;;15.10;94.20;;;;;;5037886;28;20570;-68
2022/09/13 03:10:51;;;;;;;5.93;3.30;;;15.10;94.20;;;;;;5038470;28;20087;-68
2022/09/13 03:13:19;;;;;;;3.65;3.05;;;15.00;94.20;;;;;;5034347;28;20064;-69
2022/09/13 03:16:27;;;;;;;3.25;2.95;;;15.00;94.30;;;;;;5038705;28;20551;-69
2022/09/13 03:19:07;;;;;;;3.28;2.97;;;15.00;94.40;;;;;;5034696;28;20033;-68
2022/09/13 03:22:17;;;;;;;3.42;3.13;;;15.00;94.50;;;;;;5038829;28;20035;-68
2022/09/13 03:25:01;;;;;;;3.78;2.88;;;14.90;94.40;;;;;;5036017;28;20509;-68
2022/09/13 03:28:02;;;;;;;4.90;3.30;;;14.90;94.40;;;;;;5036319;28;20037;-69
2022/09/13 03:30:31;;;;;;;4.40;3.53;;;14.90;94.80;;;;;;5036439;28;20130;-69
2022/09/13 03:33:12;;;;;;;4.10;3.70;;;14.80;94.50;;;;;;5033800;28;20091;-70
2022/09/13 03:35:54;;;;;;;3.72;3.17;;;14.80;94.50;;;;;;5034365;28;20120;-69
2022/09/13 03:38:28;;;;;;;4.18;3.38;;;14.80;94.50;;;;;;5032411;28;20111;-69
2022/09/13 03:41:10;;;;;;;4.00;3.40;;;14.80;94.80;;;;;;5037655;28;20127;-68
2022/09/13 03:43:52;;;;;;;4.30;3.65;;;14.80;94.80;;;;;;5037919;28;20404;-68
2022/09/13 03:46:26;;;;;;;3.75;3.45;;;14.70;94.80;;;;;;5036917;28;20485;-68
2022/09/13 03:48:54;;;;;;;3.42;3.13;;;14.70;94.70;;;;;;5035935;28;20681;-68
2022/09/13 03:51:21;;;;;;;5.60;3.10;;;14.70;94.90;;;;;;5035476;28;21482;-68
2022/09/13 03:53:57;;;;;;;3.83;3.50;;;14.70;95.00;;;;;;5033211;28;20125;-68
2022/09/13 03:56:23;;;;;;;3.45;3.15;;;14.70;95.30;;;;;;5033811;28;20029;-68
2022/09/13 03:58:50;;;;;;;5.75;3.60;;;14.70;95.10;;;;;;5041423;28;20051;-69
2022/09/13 04:01:23;;;;;;;5.35;4.18;;;14.70;95.20;;;;;;5039390;28;20065;-68
2022/09/13 04:03:49;;;;;;;4.05;3.38;;;14.80;95.30;;;;;;5034801;28;20068;-69
2022/09/13 04:06:15;;;;;;;5.03;3.67;;;14.80;95.30;;;;;;5036271;28;20044;-69
2022/09/13 04:08:42;;;;;;;4.22;3.83;;;14.80;95.20;;;;;;5031260;28;20413;-68
2022/09/13 04:11:08;;;;;;;4.57;3.78;;;14.80;95.20;;;;;;5033710;28;20061;-68
2022/09/13 04:13:35;;;;;;;4.72;3.70;;;14.90;95.20;;;;;;5035306;28;20057;-68
2022/09/13 04:16:05;;;;;;;6.95;4.60;;;14.90;95.20;;;;;;5038401;28;20029;-69
2022/09/13 04:18:31;;;;;;;4.30;3.47;;;14.90;95.20;;;;;;5041999;28;20060;-69
2022/09/13 04:20:59;;;;;;;4.43;3.97;;;14.90;95.10;;;;;;5040135;28;20103;-69
2022/09/13 04:23:26;;;;;;;4.30;3.50;;;15.00;95.00;;;;;;5038931;28;20781;-68
2022/09/13 04:25:52;;;;;;;4.30;3.90;;;15.00;95.00;;;;;;5036079;28;20040;-69
2022/09/13 04:28:20;;;;;;;4.25;3.50;;;15.00;95.00;;;;;;5034850;28;20033;-68
2022/09/13 04:30:47;;;;;;;5.07;3.85;;;15.10;95.10;;;;;;5033818;28;20025;-68
2022/09/13 04:33:13;;;;;;;5.70;3.88;;;15.10;95.10;;;;;;5031751;28;20036;-69
2022/09/13 04:35:39;;;;;;;5.78;3.35;;;15.20;95.00;;;;;;5036625;28;20032;-68
2022/09/13 04:38:06;;;;;;;3.65;3.13;;;15.20;94.80;;;;;;5039513;28;20512;-70
2022/09/13 04:40:33;;;;;;;4.05;3.65;;;15.30;94.80;;;;;;5039070;28;20108;-69
2022/09/13 04:43:02;;;;;;;4.95;3.70;;;15.30;94.80;;;;;;5036029;28;20025;-69
2022/09/13 04:45:28;;;;;;;4.03;3.60;;;15.30;94.70;;;;;;5034535;28;20029;-68
2022/09/13 04:47:57;;;;;;;3.88;3.13;;;15.40;94.40;;;;;;5033321;28;20396;-68
2022/09/13 04:50:24;;;;;;;6.43;3.38;;;15.40;94.50;;;;;;5036712;28;20759;-69
2022/09/13 04:52:53;;;;;;;6.05;3.80;;;15.40;94.40;;;;;;5032615;28;20036;-68
2022/09/13 04:55:18;;;;;;;3.92;3.38;;;15.40;94.40;;;;;;5042081;28;20397;-69
2022/09/13 04:57:44;;;;;;;4.07;3.30;;;15.40;94.30;;;;;;5042849;28;20025;-69
2022/09/13 05:00:11;;;;;;;4.90;4.03;;;15.50;94.40;;;;;;5038751;28;20033;-69
2022/09/13 05:02:37;;;;;;;4.05;3.55;;;15.50;94.40;;;;;;5042693;28;20892;-68
2022/09/13 05:05:02;;;;;;;4.55;4.07;;;15.50;94.40;;;;;;5037135;28;20121;-69
2022/09/13 05:07:28;;;;;;;4.22;3.65;;;15.60;94.30;;;;;;5037718;28;20055;-68
2022/09/13 05:09:54;;;;;;;8.10;3.97;;;15.60;94.30;;;;;;5034321;28;20061;-68
2022/09/13 05:12:20;;;;;;;7.25;4.03;;;15.70;94.20;;;;;;5035277;28;20673;-69
2022/09/13 05:14:45;;;;;;;6.43;3.30;;;15.70;94.10;;;;;;5042819;28;20041;-69
2022/09/13 05:17:11;;;;;;;6.07;4.18;;;15.80;94.00;;;;;;5041325;28;20025;-70
2022/09/13 05:19:37;;;;;;;5.57;4.15;;;15.80;94.00;;;;;;5040763;28;20168;-69
2022/09/13 05:22:03;;;;;;;5.40;4.40;;;15.90;93.70;;;;;;5037443;28;20031;-69
2022/09/13 05:24:28;;;;;;;5.90;4.80;;;15.80;93.50;;;;;;5038787;28;20433;-69
2022/09/13 05:26:54;;;;;;;5.13;4.07;;;15.90;93.30;;;;;;5034646;28;20082;-69
2022/09/13 05:29:20;;;;;;;7.13;4.40;;;15.80;93.20;;;;;;5036345;28;20032;-70
2022/09/13 05:31:46;;;;;;;6.07;4.90;;;15.80;93.30;;;;;;5035671;28;20682;-67
2022/09/13 05:34:14;;;;;;;7.07;4.10;;;15.80;93.50;;;;;;5042408;28;20624;-69
2022/09/13 05:36:40;;;;;;;7.70;4.82;;;15.80;93.80;;;;;;5040882;28;20021;-69
2022/09/13 05:39:10;;;;;;;8.18;4.40;;;15.90;94.00;;;;;;5038855;28;20040;-70
2022/09/13 05:41:36;;;;;;;6.00;4.97;;;15.90;94.20;;;;;;5039108;28;20025;-69
2022/09/13 05:44:02;;;;;;;7.82;5.43;;;15.90;94.30;;;;;;5035416;28;20401;-69
2022/09/13 05:46:28;;;;;;;5.60;5.00;;;16.00;94.50;;;;;;5036885;28;20132;-70
2022/09/13 05:48:57;;;;;;;5.97;5.03;;;15.90;94.50;;;;;;5033363;28;20029;-69
2022/09/13 05:51:22;;;;;;;6.43;4.70;;;15.90;94.50;;;;;;5038570;28;20039;-70
2022/09/13 05:53:50;;;;;;;8.68;5.35;;;15.90;94.60;;;;;;5039624;28;20025;-69
2022/09/13 05:56:21;;;;;;;4.78;4.13;;;15.90;94.80;;;;;;5039439;28;20401;-69
2022/09/13 05:58:48;;;;;;;5.95;4.80;;;15.90;95.00;;;;;;5037685;28;20028;-69
2022/09/13 06:01:19;;;;;;;4.95;4.45;;;15.90;95.20;;;;;;5036793;28;20033;-69
2022/09/13 06:03:50;;;;;;;6.63;4.13;;;15.90;95.40;;;;;;5039522;28;20087;-69
2022/09/13 06:06:16;;;;;;;6.28;4.78;;;15.90;95.60;;;;;;5034710;28;20504;-69
2022/09/13 06:08:42;;;;;;;6.65;5.60;;;16.00;95.70;;;;;;5035508;28;20029;-69
2022/09/13 06:11:10;;;;;;;8.23;5.63;;;15.90;95.80;;;;;;5041857;28;20119;-70
2022/09/13 06:13:37;;;;;;;6.45;5.70;;;15.90;96.00;;;;;;5041844;28;20033;-69
2022/09/13 06:16:06;;;;;;;9.07;6.38;;;15.90;96.20;;;;;;5039641;28;20623;-70
2022/09/13 06:18:32;;;;;;;6.68;5.75;;;16.00;96.30;;;;;;5039289;28;20397;-69
2022/09/13 06:21:01;;;;;;;7.85;5.25;;;16.00;96.30;;;;;;5035424;28;20029;-70
2022/09/13 06:23:27;;;;;;;8.93;6.30;;;16.00;96.40;;;;;;5034267;28;20539;-69
2022/09/13 06:26:24;;;;;;;7.68;5.72;;;16.00;96.40;;;;;;5029938;28;20042;-69
2022/09/13 06:28:52;;;;;;;11.50;6.43;;;16.00;96.50;;;;;;5038694;28;20048;-69
2022/09/13 06:31:20;;;;;;;8.18;5.93;;;16.10;96.30;;;;;;5038617;28;20033;-69
2022/09/13 06:33:46;;;;;;;7.30;5.95;;;16.10;96.40;;;;;;5038492;28;20606;-69
2022/09/13 06:36:14;;;;;;;7.97;6.30;;;16.10;96.40;;;;;;5034861;28;20034;-70
2022/09/13 06:38:40;;;;;;;6.78;5.68;;;16.10;96.50;;;;;;5038551;28;20032;-69
2022/09/13 06:41:09;;;;;;;7.65;5.82;;;16.20;96.50;;;;;;5035266;28;20033;-69
2022/09/13 06:43:35;;;;;;;7.50;5.80;;;16.20;96.60;;;;;;5036171;28;20028;-69
2022/09/13 06:46:03;;;;;;;7.50;5.70;;;16.30;97.00;;;;;;5034744;28;20161;-69
2022/09/13 06:48:35;;;;;;;8.57;6.35;;;16.30;96.70;;;;;;5040758;28;20036;-69
2022/09/13 06:51:03;;;;;;;8.02;6.32;;;16.40;96.60;;;;;;5038497;28;20044;-69
2022/09/13 06:53:32;;;;;;;9.93;6.07;;;16.40;96.40;;;;;;5038292;28;20473;-69
2022/09/13 06:56:19;;;;;;;8.57;6.35;;;16.50;96.20;;;;;;5036163;28;20037;-69
2022/09/13 06:58:47;;;;;;;7.85;6.00;;;16.50;96.20;;;;;;5032302;28;20126;-69
2022/09/13 07:01:22;;;;;;;9.07;6.55;;;16.60;96.10;;;;;;5033903;28;20330;-69
2022/09/13 07:03:51;;;;;;;8.17;6.30;;;16.70;96.10;;;;;;5034944;28;20621;-70
2022/09/13 07:06:28;;;;;;;7.53;5.65;;;16.70;96.00;;;;;;5035240;28;20029;-70
2022/09/13 07:08:55;;;;;;;8.27;5.75;;;16.80;95.70;;;;;;5035333;28;20017;-70
2022/09/13 07:11:24;;;;;;;7.60;6.13;;;16.80;95.70;;;;;;5034959;28;20763;-70
2022/09/13 07:13:54;;;;;;;8.25;5.53;;;16.80;95.70;;;;;;5037274;28;20428;-70
2022/09/13 07:16:22;;;;;;;7.93;6.13;;;16.80;95.80;;;;;;5037245;28;20041;-70
2022/09/13 07:18:52;;;;;;;7.78;6.20;;;16.90;95.70;;;;;;5033592;28;20068;-69
2022/09/13 07:21:18;;;;;;;7.75;5.90;;;16.90;95.60;;;;;;5032925;28;20051;-69
2022/09/13 07:23:44;;;;;;;9.38;6.35;;;17.00;95.50;;;;;;5030138;28;20493;-69
2022/09/13 07:26:10;;;;;;;7.72;5.47;;;17.00;95.60;;;;;;5036227;28;20043;-69
2022/09/13 07:28:38;;;;;;;9.48;6.22;;;17.00;95.50;;;;;;5038366;28;20032;-69
2022/09/13 07:31:09;;;;;;;7.43;5.63;;;17.10;95.30;;;;;;5035310;28;20133;-69
2022/09/13 07:33:37;;;;;;;9.63;6.03;;;17.10;95.00;;;;;;5029969;28;20037;-71
2022/09/13 07:36:05;;;;;;;8.57;6.60;;;17.20;95.00;;;;;;5032441;28;20025;-70
2022/09/13 07:38:33;;;;;;;8.50;6.00;;;17.20;95.00;;;;;;5033578;28;20434;-69
2022/09/13 07:40:59;;;;;;;11.10;7.05;;;17.20;95.10;;;;;;5030527;28;20121;-69
2022/09/13 07:43:26;;;;;;;8.57;6.30;;;17.30;95.20;;;;;;5031556;28;20037;-70
2022/09/13 07:45:59;;;;;;;11.80;5.57;;;17.30;95.10;;;;;;5035839;28;20029;-70
2022/09/13 07:48:27;;;;;;;7.72;5.68;;;17.30;95.20;;;;;;5028942;28;20039;-69
2022/09/13 07:51:19;;;;;;;9.60;6.28;;;17.40;95.20;;;;;;5027779;28;20041;-69
2022/09/13 07:53:46;;;;;;;8.85;5.38;;;17.40;95.20;;;;;;5033504;28;20037;-70
2022/09/13 07:56:14;;;;;;;8.07;5.60;;;17.50;95.10;;;;;;5033038;28;20037;-70
2022/09/13 07:58:43;;;;;;;12.55;6.55;;;17.50;95.00;;;;;;5032171;28;20335;-70
2022/09/13 08:01:15;;;;;;;8.82;6.57;;;17.60;95.00;;;;;;5029224;28;20041;-69
2022/09/13 08:03:41;;;;;;;8.30;5.25;;;17.60;94.90;;;;;;5035232;28;20049;-70
2022/09/13 08:06:07;;;;;;;8.95;6.20;;;17.60;95.00;;;;;;5037598;28;20433;-69
2022/09/13 08:08:34;;;;;;;8.35;6.45;;;17.60;95.00;;;;;;5037778;28;20091;-69
2022/09/13 08:11:02;;;;;;;9.38;6.60;;;17.70;95.00;;;;;;5034560;28;20493;-69
2022/09/13 08:13:28;;;;;;;8.30;6.35;;;17.80;94.80;;;;;;5035986;28;20759;-70
2022/09/13 08:15:55;;;;;;;7.75;6.28;;;17.80;94.60;;;;;;5035534;28;20386;-70
2022/09/13 08:18:21;;;;;;;9.32;6.47;;;17.80;94.80;;;;;;5033288;28;20401;-69
2022/09/13 08:20:47;;;;;;;8.43;6.10;;;17.80;94.80;;;;;;5030623;28;20036;-70
2022/09/13 08:23:13;;;;;;;8.60;6.68;;;17.80;94.90;;;;;;5038934;28;20046;-70
2022/09/13 08:25:39;;;;;;;9.98;6.70;;;17.80;95.10;;;;;;5042334;28;20029;-70
2022/09/13 08:28:06;;;;;;;8.60;6.97;;;17.80;95.20;;;;;;5039974;28;20055;-69
2022/09/13 08:30:36;;;;;;;8.50;7.13;;;18.00;95.10;;;;;;5040440;28;20029;-70
2022/09/13 08:33:03;;;;;;;8.93;7.18;;;18.00;95.20;;;;;;5036866;28;20034;-70
2022/09/13 08:35:30;;;;;;;7.15;6.03;;;18.20;94.90;;;;;;5037985;28;20097;-69
2022/09/13 08:37:56;;;;;;;10.02;7.32;;;18.30;94.80;;;;;;5037672;28;20034;-71
2022/09/13 08:40:24;;;;;;;10.48;6.85;;;18.50;94.60;;;;;;5039485;28;20550;-71
2022/09/13 08:43:14;;;;;;;9.18;6.13;;;18.70;94.10;;;;;;5042764;28;20788;-71
2022/09/13 08:45:40;;;;;;;8.85;6.43;;;18.80;93.90;;;;;;5035961;28;20052;-71
2022/09/13 08:48:40;;;;;;;8.48;6.75;;;18.90;93.40;;;;;;5040140;28;20131;-71
2022/09/13 08:51:27;;;;;;;8.55;6.30;;;19.10;93.30;;;;;;5032377;28;20037;-71
2022/09/13 08:53:52;;;;;;;;;;;19.20;92.70;;;;;;5037195;28;20060;-71
2022/09/13 08:56:51;;;;;;;7.72;6.03;;;19.30;92.70;;;;;;5035178;28;19955;-71
2022/09/13 08:59:28;;;;;;;9.23;6.38;;;19.30;92.60;;;;;;5040782;28;20048;-71
2022/09/13 09:02:23;;;;;;;9.23;5.90;;;19.50;92.80;;;;;;5038907;28;20488;-70
2022/09/13 09:04:55;;;;;;;8.65;5.93;;;19.60;92.60;;;;;;5022696;28;20029;-71
2022/09/13 09:07:31;;;;;;;7.85;6.18;;;19.80;91.80;;;;;;5039232;28;20054;-71
2022/09/13 09:10:03;;;;;;;;;;;19.70;92.00;;;;;;5037602;28;20805;-70
2022/09/13 09:12:38;;;;;;;9.88;6.47;;;19.80;92.30;;;;;;5036454;28;19936;-70
2022/09/13 09:15:11;;;;;;;8.27;6.32;;;19.90;92.10;;;;;;5037304;28;20041;-71
2022/09/13 09:17:58;;;;;;;6.90;5.45;;;20.10;91.70;;;;;;5035844;28;20128;-70
2022/09/13 09:20:45;;;;;;;9.23;6.03;;;20.20;91.50;;;;;;5042893;28;20662;-70
2022/09/13 09:23:18;;;;;;;7.70;5.80;;;20.40;91.50;;;;;;5040062;28;20150;-71
2022/09/13 09:25:45;;;;;;;7.18;6.07;;;20.50;91.50;;;;;;5039617;28;20040;-70
2022/09/13 09:28:16;;;;;;;8.68;5.45;;;20.60;91.40;;;;;;5036813;28;20029;-70
2022/09/13 09:31:13;;;;;;;7.15;4.85;;;20.60;91.30;;;;;;5036741;28;20036;-71
2022/09/13 09:34:09;;;;;;;6.22;5.45;;;20.60;91.40;;;;;;5035398;28;20059;-71
2022/09/13 09:36:39;;;;;;;6.20;5.18;;;20.70;91.00;;;;;;5030801;28;20143;-71
2022/09/13 09:39:09;;;;;;;8.43;5.20;;;20.80;91.10;;;;;;5041262;28;20036;-71
2022/09/13 09:41:37;;;;;;;8.13;5.28;;;20.90;90.90;;;;;;5041863;28;20029;-71
2022/09/13 09:44:16;;;;;;;8.10;5.60;;;21.10;90.70;;;;;;5038152;28;20041;-70
2022/09/13 09:46:44;;;;;;;5.97;4.75;;;21.30;90.40;;;;;;5036907;28;20033;-71
2022/09/13 09:52:27;;;;;;;6.55;4.57;;;21.50;90.40;;;;;;5035526;28;20037;-71
2022/09/13 09:54:58;;;;;;;5.70;5.00;;;21.60;89.50;;;;;;5032030;28;20029;-71
2022/09/13 09:57:50;;;;;;;5.75;4.88;;;21.60;87.30;;;;;;5041826;28;20124;-72
2022/09/13 10:00:16;;;;;;;8.93;5.03;;;21.70;87.90;;;;;;5039816;28;20038;-71
2022/09/13 10:02:43;;;;;;;6.78;5.15;;;21.70;88.50;;;;;;5041399;28;20550;-71
2022/09/13 10:05:11;;;;;;;7.75;5.25;;;21.80;88.30;;;;;;5036402;28;20067;-71
2022/09/13 10:07:39;;;;;;;5.63;4.70;;;21.90;86.50;;;;;;5037078;28;20064;-70
2022/09/13 10:10:19;;;;;;;7.70;5.50;;;22.00;86.80;;;;;;5048449;28;20044;-71
2022/09/13 10:12:49;;;;;;;5.40;4.50;;;22.20;86.40;;;;;;5035554;28;20068;-71
2022/09/13 10:15:21;;;;;;;8.50;4.82;;;22.30;86.40;;;;;;5036601;28;20421;-71
2022/09/13 10:18:16;;;;;;;6.65;4.90;;;22.40;86.00;;;;;;5040957;28;20029;-71
2022/09/13 10:21:09;;;;;;;6.32;4.53;;;22.30;84.40;;;;;;5035221;28;20032;-71
2022/09/13 10:23:36;;;;;;;7.32;5.30;;;22.20;84.70;;;;;;5036013;28;20048;-71
2022/09/13 10:26:07;;;;;;;7.60;5.65;;;22.20;85.30;;;;;;5034258;28;20095;-71
2022/09/13 10:28:40;;;;;;;5.57;4.50;;;22.20;85.00;;;;;;5035646;28;20028;-71
2022/09/13 10:31:09;;;;;;;5.57;4.78;;;22.20;85.60;;;;;;5031803;28;20037;-71
2022/09/13 10:33:38;;;;;;;6.00;4.60;;;22.20;86.00;;;;;;5033603;28;20029;-71
2022/09/13 10:36:20;;;;;;;4.90;4.32;;;22.20;85.40;;;;;;5039516;28;20091;-72
2022/09/13 10:39:16;;;;;;;6.22;4.00;;;22.10;85.30;;;;;;5039423;28;20059;-72
2022/09/13 10:41:49;;;;;;;5.43;4.38;;;22.10;85.50;;;;;;5037589;28;20702;-71
2022/09/13 10:44:40;;;;;;;5.55;4.60;;;22.00;85.80;;;;;;5034521;28;20048;-71
2022/09/13 10:47:12;;;;;;;5.78;4.78;;;21.80;85.80;;;;;;5032490;28;20048;-71
2022/09/13 10:49:51;;;;;;;5.80;3.80;;;21.70;86.40;;;;;;5033593;28;20102;-71
2022/09/13 10:52:44;;;;;;;7.85;4.45;;;21.50;86.60;;;;;;5036548;28;20045;-71
2022/09/13 10:55:17;;;;;;;8.98;4.68;;;21.40;87.10;;;;;;5038982;28;20052;-72
2022/09/13 10:57:47;;;;;;;9.68;5.35;;;21.30;88.20;;;;;;5038386;28;20040;-71
2022/09/13 11:00:18;;;;;;;5.15;4.53;;;21.20;89.60;;;;;;5034484;28;20036;-72
2022/09/13 11:03:22;;;;;;;6.38;5.20;;;21.00;90.30;;;;;;5036576;28;20816;-71
2022/09/13 11:06:20;;;;;;;5.05;4.18;;;20.80;90.90;;;;;;5033958;28;20113;-71
2022/09/13 11:08:59;;;;;;;7.38;5.38;;;20.70;91.70;;;;;;5033860;28;20041;-71
2022/09/13 11:11:53;;;;;;;7.32;5.43;;;20.60;92.20;;;;;;5036027;28;20075;-71
2022/09/13 11:14:43;;;;;;;6.93;5.97;;;20.50;92.20;;;;;;5038214;28;20033;-72
2022/09/13 11:17:40;;;;;;;6.28;5.68;;;20.40;92.70;;;;;;5037497;28;20929;-71
2022/09/13 11:20:34;;;;;;;8.15;6.15;;;20.30;93.10;;;;;;5035991;28;20049;-71
2022/09/13 11:23:10;;;;;;;6.95;5.53;;;20.20;93.30;;;;;;5034016;28;20601;-71
2022/09/13 11:26:05;;;;;;;7.95;6.53;;;20.20;93.60;;;;;;5034068;28;20060;-71
2022/09/13 11:29:09;;;;;;;7.78;5.72;;;20.20;93.70;;;;;;5029252;28;20025;-72
2022/09/13 11:31:46;;;;;;;8.10;5.50;;;20.10;93.90;;;;;;5036114;28;20055;-72
2022/09/13 11:34:40;;;;;;;7.85;5.68;;;20.00;94.20;;;;;;5036828;28;20127;-72
2022/09/13 11:37:18;;;;;;;8.27;6.10;;;20.00;94.50;;;;;;5035557;28;20051;-73
2022/09/13 11:40:30;;;;;;;7.43;5.80;;;20.00;94.80;;;;;;5033002;28;20040;-73
2022/09/13 11:43:02;;;;;;;8.13;5.82;;;19.90;95.00;;;;;;5033133;28;20025;-73
2022/09/13 11:45:38;;;;;;;6.90;5.90;;;19.90;95.20;;;;;;5032201;28;20378;-73
2022/09/13 11:48:21;;;;;;;8.65;6.28;;;19.90;95.50;;;;;;5028841;28;20047;-72
2022/09/13 11:50:56;;;;;;;6.35;5.32;;;19.90;95.70;;;;;;5038958;28;20039;-73
2022/09/13 11:53:37;;;;;;;7.93;6.57;;;19.90;95.80;;;;;;5037261;28;20029;-73
2022/09/13 11:56:12;;;;;;;8.57;6.72;;;20.00;95.90;;;;;;5034514;28;20136;-73
2022/09/13 11:59:10;;;;;;;8.23;6.07;;;20.10;95.80;;;;;;5038375;28;20032;-71
2022/09/13 12:01:43;;;;;;;10.50;7.78;;;20.20;95.80;;;;;;5039281;28;20056;-71
2022/09/13 12:04:37;;;;;;;8.30;6.78;;;20.30;95.30;;;;;;5037922;28;20389;-70
2022/09/13 12:07:15;;;;;;;14.60;7.45;;;20.30;95.00;;;;;;5033013;28;20422;-70
2022/09/13 12:09:54;;;;;;;11.88;7.90;;;20.40;95.00;;;;;;5041752;28;20035;-70
2022/09/13 12:12:30;;;;;;;7.45;5.82;;;20.50;94.90;;;;;;5040696;28;20041;-70
2022/09/13 12:15:33;;;;;;;8.77;6.53;;;20.50;94.80;;;;;;5040386;28;20069;-73
2022/09/13 12:18:12;;;;;;;8.68;6.85;;;20.60;95.00;;;;;;5038744;28;20516;-72
2022/09/13 12:20:54;;;;;;;8.25;7.18;;;20.60;94.60;;;;;;5037267;28;20073;-71
2022/09/13 12:23:26;;;;;;;12.07;8.43;;;20.60;94.70;;;;;;5036603;28;21480;-70
2022/09/13 12:26:06;;;;;;;8.93;7.28;;;20.80;94.80;;;;;;5033147;28;20029;-72
2022/09/13 12:28:35;;;;;;;12.57;8.07;;;20.80;94.60;;;;;;5040374;28;20033;-70
2022/09/13 12:31:08;;;;;;;11.27;7.60;;;20.90;94.30;;;;;;5040627;28;20025;-70
2022/09/13 12:33:39;;;;;;;9.52;5.80;;;21.00;94.10;;;;;;5040413;28;20025;-71
2022/09/13 12:36:14;;;;;;;10.88;7.63;;;21.00;94.10;;;;;;5037880;28;20037;-70
2022/09/13 12:39:08;;;;;;;9.07;7.55;;;21.00;93.90;;;;;;5039322;28;20460;-72
2022/09/13 12:41:36;;;;;;;7.97;6.68;;;21.00;93.70;;;;;;5036815;28;20730;-72
2022/09/13 12:44:19;;;;;;;7.05;6.15;;;21.00;93.70;;;;;;5031773;28;20117;-72
2022/09/13 12:47:20;;;;;;;8.43;6.90;;;21.00;93.80;;;;;;5039428;28;20486;-72
2022/09/13 12:50:01;;;;;;;9.55;7.15;;;21.00;93.70;;;;;;5036554;28;20094;-70
2022/09/13 12:52:48;;;;;;;9.80;7.68;;;20.90;93.50;;;;;;5038002;28;20060;-70
2022/09/13 12:55:25;;;;;;;12.40;7.05;;;21.00;93.20;;;;;;5037925;28;20088;-70
2022/09/13 12:58:05;;;;;;;8.95;6.45;;;20.90;93.30;;;;;;5036984;28;20477;-70
2022/09/13 13:00:43;;;;;;;13.45;8.48;;;20.90;93.20;;;;;;5036836;28;20666;-73
2022/09/13 13:03:10;;;;;;;11.40;7.57;;;20.90;93.10;;;;;;5036597;28;20042;-73
2022/09/13 13:05:49;;;;;;;11.10;7.90;;;21.00;93.30;;;;;;5042503;28;20610;-70
2022/09/13 13:08:18;;;;;;;9.98;8.52;;;21.00;93.20;;;;;;5041039;28;20045;-73
2022/09/13 13:10:57;;;;;;;13.10;9.20;;;21.00;93.30;;;;;;5038657;28;20087;-73
2022/09/13 13:13:33;;;;;;;11.43;8.35;;;21.10;93.40;;;;;;5039088;28;20037;-72
2022/09/13 13:16:20;;;;;;;9.63;7.20;;;21.30;93.40;;;;;;5038090;28;20832;-72
2022/09/13 13:18:47;;;;;;;10.57;7.43;;;21.30;93.30;;;;;;5036635;28;20036;-72
2022/09/13 13:21:22;;;;;;;11.68;8.10;;;21.50;93.20;;;;;;5032341;28;20021;-71
2022/09/13 13:24:13;;;;;;;9.80;7.15;;;21.50;92.70;;;;;;5038997;28;20025;-70